sensor_id;sensor_type;location;lat;lon;timestamp;pressure;altitude;pressure_sealevel;temperature;humidity
70976;BME280;58635;51.198;6.010;2024-01-30T00:00:53;102521.56;;;10.75;62.24
70976;BME280;58635;51.198;6.010;2024-01-30T00:03:19;102520.75;;;10.74;62.31
70976;BME280;58635;51.198;6.010;2024-01-30T00:05:44;102517.19;;;10.75;62.20
70976;BME280;58635;51.198;6.010;2024-01-30T00:08:10;102521.28;;;10.78;62.52
70976;BME280;58635;51.198;6.010;2024-01-30T00:10:35;102516.91;;;10.78;62.05
70976;BME280;58635;51.198;6.010;2024-01-30T00:13:01;102513.34;;;10.79;62.13
70976;BME280;58635;51.198;6.010;2024-01-30T00:15:27;102509.78;;;10.80;62.23
70976;BME280;58635;51.198;6.010;2024-01-30T00:17:53;102510.44;;;10.82;62.07
70976;BME280;58635;51.198;6.010;2024-01-30T00:20:18;102511.09;;;10.84;62.28
70976;BME280;58635;51.198;6.010;2024-01-30T00:22:44;102507.53;;;10.86;62.02
70976;BME280;58635;51.198;6.010;2024-01-30T00:25:09;102505.78;;;10.86;62.31
70976;BME280;58635;51.198;6.010;2024-01-30T00:27:35;102502.06;;;10.89;62.07
70976;BME280;58635;51.198;6.010;2024-01-30T00:30:00;102494.28;;;10.89;62.05
70976;BME280;58635;51.198;6.010;2024-01-30T00:32:25;102503.72;;;10.90;62.13
70976;BME280;58635;51.198;6.010;2024-01-30T00:34:51;102502.88;;;10.89;61.87
70976;BME280;58635;51.198;6.010;2024-01-30T00:37:16;102500.44;;;10.88;61.92
70976;BME280;58635;51.198;6.010;2024-01-30T00:39:41;102506.44;;;10.88;61.95
70976;BME280;58635;51.198;6.010;2024-01-30T00:42:07;102505.78;;;10.86;61.90
70976;BME280;58635;51.198;6.010;2024-01-30T00:44:35;102503.19;;;10.86;61.88
70976;BME280;58635;51.198;6.010;2024-01-30T00:47:02;102512.72;;;10.86;61.93
70976;BME280;58635;51.198;6.010;2024-01-30T00:49:28;102506.09;;;10.83;61.77
70976;BME280;58635;51.198;6.010;2024-01-30T00:51:53;102520.66;;;10.84;61.96
70976;BME280;58635;51.198;6.010;2024-01-30T00:54:18;102513.03;;;10.82;62.02
70976;BME280;58635;51.198;6.010;2024-01-30T00:56:44;102503.81;;;10.80;61.78
70976;BME280;58635;51.198;6.010;2024-01-30T00:59:11;102508.19;;;10.79;61.71
70976;BME280;58635;51.198;6.010;2024-01-30T01:01:36;102503.16;;;10.78;61.93
70976;BME280;58635;51.198;6.010;2024-01-30T01:04:02;102509.41;;;10.75;61.88
70976;BME280;58635;51.198;6.010;2024-01-30T01:06:27;102497.44;;;10.74;62.02
70976;BME280;58635;51.198;6.010;2024-01-30T01:08:52;102498.56;;;10.72;61.90
70976;BME280;58635;51.198;6.010;2024-01-30T01:11:18;102499.53;;;10.71;62.09
70976;BME280;58635;51.198;6.010;2024-01-30T01:13:43;102501.47;;;10.69;62.02
70976;BME280;58635;51.198;6.010;2024-01-30T01:16:09;102500.66;;;10.68;61.99
70976;BME280;58635;51.198;6.010;2024-01-30T01:18:34;102502.44;;;10.68;62.02
70976;BME280;58635;51.198;6.010;2024-01-30T01:20:59;102500.81;;;10.67;62.32
70976;BME280;58635;51.198;6.010;2024-01-30T01:23:25;102500.81;;;10.67;62.01
70976;BME280;58635;51.198;6.010;2024-01-30T01:25:51;102499.31;;;10.64;61.76
70976;BME280;58635;51.198;6.010;2024-01-30T01:28:16;102500.28;;;10.63;61.91
70976;BME280;58635;51.198;6.010;2024-01-30T01:30:42;102497.84;;;10.62;62.16
70976;BME280;58635;51.198;6.010;2024-01-30T01:33:07;102490.25;;;10.60;62.01
70976;BME280;58635;51.198;6.010;2024-01-30T01:35:32;102487.66;;;10.60;62.16
70976;BME280;58635;51.198;6.010;2024-01-30T01:37:58;102493.66;;;10.61;62.02
70976;BME280;58635;51.198;6.010;2024-01-30T01:40:26;102484.25;;;10.60;62.04
70976;BME280;58635;51.198;6.010;2024-01-30T01:42:53;102485.06;;;10.60;62.07
70976;BME280;58635;51.198;6.010;2024-01-30T01:45:19;102484.25;;;10.60;62.19
70976;BME280;58635;51.198;6.010;2024-01-30T01:47:47;102486.03;;;10.59;62.10
70976;BME280;58635;51.198;6.010;2024-01-30T01:50:13;102481.69;;;10.60;62.04
70976;BME280;58635;51.198;6.010;2024-01-30T01:52:40;102476.50;;;10.60;62.10
70976;BME280;58635;51.198;6.010;2024-01-30T01:55:06;102481.69;;;10.60;62.17
70976;BME280;58635;51.198;6.010;2024-01-30T01:57:33;102479.09;;;10.60;62.12
70976;BME280;58635;51.198;6.010;2024-01-30T01:59:59;102475.69;;;10.59;62.08
70976;BME280;58635;51.198;6.010;2024-01-30T02:02:25;102477.31;;;10.60;62.16
70976;BME280;58635;51.198;6.010;2024-01-30T02:04:51;102463.88;;;10.57;62.24
70976;BME280;58635;51.198;6.010;2024-01-30T02:07:17;102466.97;;;10.60;62.21
70976;BME280;58635;51.198;6.010;2024-01-30T02:09:42;102463.41;;;10.61;62.28
70976;BME280;58635;51.198;6.010;2024-01-30T02:12:08;102468.41;;;10.63;62.23
70976;BME280;58635;51.198;6.010;2024-01-30T02:14:44;102458.88;;;10.63;62.07
70976;BME280;58635;51.198;6.010;2024-01-30T02:17:09;102461.47;;;10.63;62.23
70976;BME280;58635;51.198;6.010;2024-01-30T02:19:34;102468.28;;;10.64;62.19
70976;BME280;58635;51.198;6.010;2024-01-30T02:22:00;102462.97;;;10.66;62.08
70976;BME280;58635;51.198;6.010;2024-01-30T02:24:25;102457.78;;;10.66;62.26
70976;BME280;58635;51.198;6.010;2024-01-30T02:26:51;102453.28;;;10.68;62.27
70976;BME280;58635;51.198;6.010;2024-01-30T02:29:16;102460.72;;;10.71;62.25
70976;BME280;58635;51.198;6.010;2024-01-30T02:31:41;102453.78;;;10.71;62.16
70976;BME280;58635;51.198;6.010;2024-01-30T02:34:07;102452.66;;;10.74;61.99
70976;BME280;58635;51.198;6.010;2024-01-30T02:36:32;102449.91;;;10.75;62.11
70976;BME280;58635;51.198;6.010;2024-01-30T02:38:57;102447.31;;;10.75;62.21
70976;BME280;58635;51.198;6.010;2024-01-30T02:41:23;102448.81;;;10.78;62.10
70976;BME280;58635;51.198;6.010;2024-01-30T02:43:48;102449.63;;;10.78;62.28
70976;BME280;58635;51.198;6.010;2024-01-30T02:46:13;102441.84;;;10.78;62.11
70976;BME280;58635;51.198;6.010;2024-01-30T02:48:39;102452.84;;;10.80;62.16
70976;BME280;58635;51.198;6.010;2024-01-30T02:51:04;102456.41;;;10.79;62.27
70976;BME280;58635;51.198;6.010;2024-01-30T02:53:29;102448.50;;;10.81;62.06
70976;BME280;58635;51.198;6.010;2024-01-30T02:55:55;102457.72;;;10.83;62.17
70976;BME280;58635;51.198;6.010;2024-01-30T02:58:20;102449.78;;;10.85;62.18
70976;BME280;58635;51.198;6.010;2024-01-30T03:00:45;102448.00;;;10.86;61.94
70976;BME280;58635;51.198;6.010;2024-01-30T03:03:11;102451.41;;;10.86;62.06
70976;BME280;58635;51.198;6.010;2024-01-30T03:05:36;102451.09;;;10.89;61.88
70976;BME280;58635;51.198;6.010;2024-01-30T03:08:01;102439.13;;;10.88;61.98
70976;BME280;58635;51.198;6.010;2024-01-30T03:10:27;102436.41;;;10.90;62.05
70976;BME280;58635;51.198;6.010;2024-01-30T03:12:52;102436.25;;;10.91;61.86
70976;BME280;58635;51.198;6.010;2024-01-30T03:15:17;102432.16;;;10.89;62.03
70976;BME280;58635;51.198;6.010;2024-01-30T03:17:43;102435.44;;;10.91;61.81
70976;BME280;58635;51.198;6.010;2024-01-30T03:20:09;102431.34;;;10.88;61.95
70976;BME280;58635;51.198;6.010;2024-01-30T03:22:34;102439.94;;;10.89;61.96
70976;BME280;58635;51.198;6.010;2024-01-30T03:25:01;102433.94;;;10.88;61.91
70976;BME280;58635;51.198;6.010;2024-01-30T03:27:26;102430.69;;;10.86;61.82
70976;BME280;58635;51.198;6.010;2024-01-30T03:29:51;102426.34;;;10.87;61.80
70976;BME280;58635;51.198;6.010;2024-01-30T03:32:17;102429.75;;;10.87;61.93
70976;BME280;58635;51.198;6.010;2024-01-30T03:34:43;102424.72;;;10.86;62.02
70976;BME280;58635;51.198;6.010;2024-01-30T03:37:09;102422.94;;;10.86;62.14
70976;BME280;58635;51.198;6.010;2024-01-30T03:39:34;102428.94;;;10.87;62.08
70976;BME280;58635;51.198;6.010;2024-01-30T03:42:00;102423.75;;;10.87;62.13
70976;BME280;58635;51.198;6.010;2024-01-30T03:44:25;102427.31;;;10.86;62.03
70976;BME280;58635;51.198;6.010;2024-01-30T03:46:50;102428.13;;;10.86;62.06
70976;BME280;58635;51.198;6.010;2024-01-30T03:49:16;102422.94;;;10.86;62.11
70976;BME280;58635;51.198;6.010;2024-01-30T03:51:41;102426.50;;;10.85;62.21
70976;BME280;58635;51.198;6.010;2024-01-30T03:54:06;102416.16;;;10.85;62.31
70976;BME280;58635;51.198;6.010;2024-01-30T03:56:32;102408.53;;;10.83;62.05
70976;BME280;58635;51.198;6.010;2024-01-30T03:58:57;102408.69;;;10.82;62.10
70976;BME280;58635;51.198;6.010;2024-01-30T04:01:23;102404.50;;;10.81;62.18
70976;BME280;58635;51.198;6.010;2024-01-30T04:03:49;102414.34;;;10.77;62.28
70976;BME280;58635;51.198;6.010;2024-01-30T04:06:14;102407.53;;;10.76;62.22
70976;BME280;58635;51.198;6.010;2024-01-30T04:08:39;102413.50;;;10.77;62.12
70976;BME280;58635;51.198;6.010;2024-01-30T04:11:05;102402.50;;;10.75;62.36
70976;BME280;58635;51.198;6.010;2024-01-30T04:13:32;102415.28;;;10.76;62.38
70976;BME280;58635;51.198;6.010;2024-01-30T04:15:59;102409.97;;;10.78;62.38
70976;BME280;58635;51.198;6.010;2024-01-30T04:18:26;102407.22;;;10.79;62.36
70976;BME280;58635;51.198;6.010;2024-01-30T04:20:52;102411.75;;;10.77;62.32
70976;BME280;58635;51.198;6.010;2024-01-30T04:23:17;102409.97;;;10.78;62.30
70976;BME280;58635;51.198;6.010;2024-01-30T04:25:42;102415.81;;;10.80;62.33
70976;BME280;58635;51.198;6.010;2024-01-30T04:28:08;102414.84;;;10.81;62.37
70976;BME280;58635;51.198;6.010;2024-01-30T04:30:33;102418.25;;;10.81;62.20
70976;BME280;58635;51.198;6.010;2024-01-30T04:32:58;102408.69;;;10.82;62.21
70976;BME280;58635;51.198;6.010;2024-01-30T04:35:24;102401.41;;;10.77;62.27
70976;BME280;58635;51.198;6.010;2024-01-30T04:37:52;102409.66;;;10.81;62.32
70976;BME280;58635;51.198;6.010;2024-01-30T04:40:17;102414.84;;;10.81;62.43
70976;BME280;58635;51.198;6.010;2024-01-30T04:42:42;102409.81;;;10.79;62.43
70976;BME280;58635;51.198;6.010;2024-01-30T04:45:08;102409.00;;;10.79;62.51
70976;BME280;58635;51.198;6.010;2024-01-30T04:47:34;102414.19;;;10.79;62.30
70976;BME280;58635;51.198;6.010;2024-01-30T04:49:59;102412.41;;;10.79;62.19
70976;BME280;58635;51.198;6.010;2024-01-30T04:52:24;102408.19;;;10.78;62.62
70976;BME280;58635;51.198;6.010;2024-01-30T04:54:50;102406.59;;;10.77;62.54
70976;BME280;58635;51.198;6.010;2024-01-30T04:57:15;102412.41;;;10.79;62.56
70976;BME280;58635;51.198;6.010;2024-01-30T04:59:40;102403.84;;;10.79;62.45
70976;BME280;58635;51.198;6.010;2024-01-30T05:02:06;102406.25;;;10.80;62.60
70976;BME280;58635;51.198;6.010;2024-01-30T05:04:32;102393.97;;;10.82;62.60
70976;BME280;58635;51.198;6.010;2024-01-30T05:06:57;102406.09;;;10.82;62.59
70976;BME280;58635;51.198;6.010;2024-01-30T05:09:22;102405.13;;;10.83;62.90
70976;BME280;58635;51.198;6.010;2024-01-30T05:11:48;102406.75;;;10.84;62.72
70976;BME280;58635;51.198;6.010;2024-01-30T05:14:13;102398.03;;;10.85;62.64
70976;BME280;58635;51.198;6.010;2024-01-30T05:16:40;102395.13;;;10.88;62.69
70976;BME280;58635;51.198;6.010;2024-01-30T05:19:06;102391.56;;;10.89;63.02
70976;BME280;58635;51.198;6.010;2024-01-30T05:21:31;102391.44;;;10.91;62.83
70976;BME280;58635;51.198;6.010;2024-01-30T05:23:56;102399.03;;;10.92;62.80
70976;BME280;58635;51.198;6.010;2024-01-30T05:26:22;102387.72;;;10.93;62.79
70976;BME280;58635;51.198;6.010;2024-01-30T05:28:48;102386.75;;;10.94;62.60
70976;BME280;58635;51.198;6.010;2024-01-30T05:31:13;102381.25;;;10.97;62.62
70976;BME280;58635;51.198;6.010;2024-01-30T05:33:39;102382.06;;;10.98;62.73
70976;BME280;58635;51.198;6.010;2024-01-30T05:36:05;102386.09;;;11.00;62.70
70976;BME280;58635;51.198;6.010;2024-01-30T05:38:30;102385.28;;;11.00;62.89
70976;BME280;58635;51.198;6.010;2024-01-30T05:40:57;102382.56;;;11.01;62.85
70976;BME280;58635;51.198;6.010;2024-01-30T05:43:25;102383.22;;;11.03;62.95
70976;BME280;58635;51.198;6.010;2024-01-30T05:45:51;102377.88;;;11.05;63.11
70976;BME280;58635;51.198;6.010;2024-01-30T05:48:16;102388.06;;;11.06;62.93
70976;BME280;58635;51.198;6.010;2024-01-30T05:50:42;102381.94;;;11.07;62.94
70976;BME280;58635;51.198;6.010;2024-01-30T05:53:07;102381.13;;;11.07;62.76
70976;BME280;58635;51.198;6.010;2024-01-30T05:55:32;102380.31;;;11.06;62.89
70976;BME280;58635;51.198;6.010;2024-01-30T05:57:58;102374.97;;;11.08;62.88
70976;BME280;58635;51.198;6.010;2024-01-30T06:00:23;102373.19;;;11.08;62.94
70976;BME280;58635;51.198;6.010;2024-01-30T06:02:49;102376.59;;;11.09;63.10
70976;BME280;58635;51.198;6.010;2024-01-30T06:05:14;102377.41;;;11.09;63.04
70976;BME280;58635;51.198;6.010;2024-01-30T06:07:40;102378.84;;;11.12;63.02
70976;BME280;58635;51.198;6.010;2024-01-30T06:10:05;102372.06;;;11.11;63.10
70976;BME280;58635;51.198;6.010;2024-01-30T06:12:32;102384.03;;;11.12;63.09
70976;BME280;58635;51.198;6.010;2024-01-30T06:14:57;102390.88;;;11.13;63.23
70976;BME280;58635;51.198;6.010;2024-01-30T06:17:23;102386.34;;;11.15;63.24
70976;BME280;58635;51.198;6.010;2024-01-30T06:19:49;102383.75;;;11.15;63.20
70976;BME280;58635;51.198;6.010;2024-01-30T06:22:16;102394.75;;;11.17;63.28
70976;BME280;58635;51.198;6.010;2024-01-30T06:24:41;102393.13;;;11.16;63.31
70976;BME280;58635;51.198;6.010;2024-01-30T06:27:07;102380.19;;;11.16;63.15
70976;BME280;58635;51.198;6.010;2024-01-30T06:29:32;102386.97;;;11.17;63.21
70976;BME280;58635;51.198;6.010;2024-01-30T06:31:57;102380.84;;;11.18;63.03
70976;BME280;58635;51.198;6.010;2024-01-30T06:34:23;102376.47;;;11.19;63.31
70976;BME280;58635;51.198;6.010;2024-01-30T06:36:49;102376.31;;;11.20;63.26
70976;BME280;58635;51.198;6.010;2024-01-30T06:39:14;102372.72;;;11.21;63.23
70976;BME280;58635;51.198;6.010;2024-01-30T06:41:39;102376.31;;;11.20;63.45
70976;BME280;58635;51.198;6.010;2024-01-30T06:44:05;102376.78;;;11.24;63.33
70976;BME280;58635;51.198;6.010;2024-01-30T06:46:31;102379.25;;;11.25;63.37
70976;BME280;58635;51.198;6.010;2024-01-30T06:48:57;102383.44;;;11.26;63.33
70976;BME280;58635;51.198;6.010;2024-01-30T06:51:23;102385.06;;;11.27;63.56
70976;BME280;58635;51.198;6.010;2024-01-30T06:53:48;102390.91;;;11.29;63.35
70976;BME280;58635;51.198;6.010;2024-01-30T06:56:14;102384.91;;;11.29;63.58
70976;BME280;58635;51.198;6.010;2024-01-30T06:58:39;102384.75;;;11.30;63.41
70976;BME280;58635;51.198;6.010;2024-01-30T07:01:04;102384.75;;;11.30;63.49
70976;BME280;58635;51.198;6.010;2024-01-30T07:03:30;102393.97;;;11.33;63.46
70976;BME280;58635;51.198;6.010;2024-01-30T07:05:55;102393.16;;;11.32;63.32
70976;BME280;58635;51.198;6.010;2024-01-30T07:08:21;102393.97;;;11.33;63.38
70976;BME280;58635;51.198;6.010;2024-01-30T07:10:47;102399.97;;;11.33;63.59
70976;BME280;58635;51.198;6.010;2024-01-30T07:13:12;102400.78;;;11.34;63.34
70976;BME280;58635;51.198;6.010;2024-01-30T07:15:38;102412.59;;;11.36;63.76
70976;BME280;58635;51.198;6.010;2024-01-30T07:18:04;102413.44;;;11.37;63.61
70976;BME280;58635;51.198;6.010;2024-01-30T07:20:30;102415.06;;;11.38;63.87
70976;BME280;58635;51.198;6.010;2024-01-30T07:22:57;102412.28;;;11.39;63.91
70976;BME280;58635;51.198;6.010;2024-01-30T07:25:23;102413.75;;;11.42;63.90
70976;BME280;58635;51.198;6.010;2024-01-30T07:27:52;102416.81;;;11.46;64.01
70976;BME280;58635;51.198;6.010;2024-01-30T07:30:18;102423.63;;;11.47;63.79
70976;BME280;58635;51.198;6.010;2024-01-30T07:32:43;102430.28;;;11.49;64.07
70976;BME280;58635;51.198;6.010;2024-01-30T07:35:09;102435.31;;;11.51;63.96
70976;BME280;58635;51.198;6.010;2024-01-30T07:37:35;102442.94;;;11.52;64.09
70976;BME280;58635;51.198;6.010;2024-01-30T07:40:01;102436.59;;;11.55;64.00
70976;BME280;58635;51.198;6.010;2024-01-30T07:42:26;102444.22;;;11.56;64.07
70976;BME280;58635;51.198;6.010;2024-01-30T07:44:52;102449.25;;;11.58;64.08
70976;BME280;58635;51.198;6.010;2024-01-30T07:47:17;102448.13;;;11.60;63.98
70976;BME280;58635;51.198;6.010;2024-01-30T07:49:42;102453.16;;;11.62;64.04
70976;BME280;58635;51.198;6.010;2024-01-30T07:52:08;102454.63;;;11.64;64.14
70976;BME280;58635;51.198;6.010;2024-01-30T07:54:33;102458.81;;;11.65;64.02
70976;BME280;58635;51.198;6.010;2024-01-30T07:57:00;102454.28;;;11.67;64.17
70976;BME280;58635;51.198;6.010;2024-01-30T07:59:26;102461.25;;;11.67;64.24
70976;BME280;58635;51.198;6.010;2024-01-30T08:02:03;102463.69;;;11.68;64.13
70976;BME280;58635;51.198;6.010;2024-01-30T08:04:28;102466.59;;;11.65;64.08
70976;BME280;58635;51.198;6.010;2024-01-30T08:06:54;102461.56;;;11.64;64.27
70976;BME280;58635;51.198;6.010;2024-01-30T08:09:19;102478.09;;;11.63;64.23
70976;BME280;58635;51.198;6.010;2024-01-30T08:11:44;102477.59;;;11.59;64.21
70976;BME280;58635;51.198;6.010;2024-01-30T08:14:10;102493.81;;;11.61;64.30
70976;BME280;58635;51.198;6.010;2024-01-30T08:16:35;102489.44;;;11.62;64.43
70976;BME280;58635;51.198;6.010;2024-01-30T08:19:02;102494.31;;;11.65;64.36
70976;BME280;58635;51.198;6.010;2024-01-30T08:21:28;102499.00;;;11.69;64.51
70976;BME280;58635;51.198;6.010;2024-01-30T08:23:53;102498.53;;;11.74;64.58
70976;BME280;58635;51.198;6.010;2024-01-30T08:26:19;102504.06;;;11.79;64.53
70976;BME280;58635;51.198;6.010;2024-01-30T08:28:44;102497.47;;;11.85;64.44
70976;BME280;58635;51.198;6.010;2024-01-30T08:31:13;102492.75;;;11.88;64.73
70976;BME280;58635;51.198;6.010;2024-01-30T08:33:38;102505.88;;;11.95;64.40
70976;BME280;58635;51.198;6.010;2024-01-30T08:36:03;102501.03;;;12.00;64.27
70976;BME280;58635;51.198;6.010;2024-01-30T08:38:29;102507.34;;;12.06;64.56
70976;BME280;58635;51.198;6.010;2024-01-30T08:40:55;102500.88;;;12.10;64.34
70976;BME280;58635;51.198;6.010;2024-01-30T08:43:21;102512.41;;;12.23;64.61
70976;BME280;58635;51.198;6.010;2024-01-30T08:45:46;102515.31;;;12.37;64.28
70976;BME280;58635;51.198;6.010;2024-01-30T08:48:12;102517.25;;;12.43;64.19
70976;BME280;58635;51.198;6.010;2024-01-30T08:50:37;102524.41;;;12.49;64.09
70976;BME280;58635;51.198;6.010;2024-01-30T08:53:02;102510.13;;;12.53;63.87
70976;BME280;58635;51.198;6.010;2024-01-30T08:55:28;102519.03;;;12.58;63.70
70976;BME280;58635;51.198;6.010;2024-01-30T08:57:53;102515.78;;;12.65;63.66
70976;BME280;58635;51.198;6.010;2024-01-30T09:00:19;102508.16;;;12.71;63.66
70976;BME280;58635;51.198;6.010;2024-01-30T09:02:44;102511.88;;;12.77;63.37
70976;BME280;58635;51.198;6.010;2024-01-30T09:05:10;102508.78;;;12.81;63.35
70976;BME280;58635;51.198;6.010;2024-01-30T09:07:35;102502.59;;;12.91;63.39
70976;BME280;58635;51.198;6.010;2024-01-30T09:10:01;102509.53;;;12.98;63.03
70976;BME280;58635;51.198;6.010;2024-01-30T09:12:26;102510.50;;;13.05;62.95
70976;BME280;58635;51.198;6.010;2024-01-30T09:14:51;102501.41;;;13.09;62.93
70976;BME280;58635;51.198;6.010;2024-01-30T09:17:17;102508.84;;;13.12;62.99
70976;BME280;58635;51.198;6.010;2024-01-30T09:19:42;102507.72;;;13.15;62.72
70976;BME280;58635;51.198;6.010;2024-01-30T09:22:07;102511.28;;;13.14;62.71
70976;BME280;58635;51.198;6.010;2024-01-30T09:24:33;102521.53;;;13.15;62.94
70976;BME280;58635;51.198;6.010;2024-01-30T09:26:59;102522.50;;;13.14;62.88
70976;BME280;58635;51.198;6.010;2024-01-30T09:29:25;102517.31;;;13.14;62.56
70976;BME280;58635;51.198;6.010;2024-01-30T09:31:50;102513.06;;;13.13;62.81
70976;BME280;58635;51.198;6.010;2024-01-30T09:34:15;102523.31;;;13.15;62.63
70976;BME280;58635;51.198;6.010;2024-01-30T09:36:41;102524.63;;;13.19;62.81
70976;BME280;58635;51.198;6.010;2024-01-30T09:39:06;102524.28;;;13.22;62.60
70976;BME280;58635;51.198;6.010;2024-01-30T09:41:33;102530.78;;;13.26;62.63
70976;BME280;58635;51.198;6.010;2024-01-30T09:44:04;102531.25;;;13.30;62.54
70976;BME280;58635;51.198;6.010;2024-01-30T09:46:31;102523.72;;;13.35;62.28
70976;BME280;58635;51.198;6.010;2024-01-30T09:48:58;102529.44;;;13.38;62.31
70976;BME280;58635;51.198;6.010;2024-01-30T09:51:25;102533.28;;;13.42;62.19
70976;BME280;58635;51.198;6.010;2024-01-30T09:53:50;102536.00;;;13.49;62.08
70976;BME280;58635;51.198;6.010;2024-01-30T09:56:16;102528.88;;;13.51;62.13
70976;BME280;58635;51.198;6.010;2024-01-30T09:58:41;102528.34;;;13.56;62.04
70976;BME280;58635;51.198;6.010;2024-01-30T10:01:07;102523.78;;;13.58;61.92
70976;BME280;58635;51.198;6.010;2024-01-30T10:03:32;102520.22;;;13.59;61.92
70976;BME280;58635;51.198;6.010;2024-01-30T10:05:58;102522.81;;;13.59;61.91
70976;BME280;58635;51.198;6.010;2024-01-30T10:08:24;102532.91;;;13.62;61.88
70976;BME280;58635;51.198;6.010;2024-01-30T10:10:51;102537.75;;;13.65;61.82
70976;BME280;58635;51.198;6.010;2024-01-30T10:13:16;102545.38;;;13.66;61.93
70976;BME280;58635;51.198;6.010;2024-01-30T10:15:42;102538.84;;;13.70;61.80
70976;BME280;58635;51.198;6.010;2024-01-30T10:18:10;102547.75;;;13.76;61.79
70976;BME280;58635;51.198;6.010;2024-01-30T10:20:36;102539.78;;;13.78;61.75
70976;BME280;58635;51.198;6.010;2024-01-30T10:23:02;102543.03;;;13.80;61.61
70976;BME280;58635;51.198;6.010;2024-01-30T10:25:29;102544.81;;;13.79;61.56
70976;BME280;58635;51.198;6.010;2024-01-30T10:27:55;102537.81;;;13.80;61.57
70976;BME280;58635;51.198;6.010;2024-01-30T10:30:24;102537.66;;;13.81;61.68
70976;BME280;58635;51.198;6.010;2024-01-30T10:32:50;102546.09;;;13.83;61.75
70976;BME280;58635;51.198;6.010;2024-01-30T10:35:16;102544.94;;;13.86;61.79
70976;BME280;58635;51.198;6.010;2024-01-30T10:37:47;102543.97;;;13.87;61.64
70976;BME280;58635;51.198;6.010;2024-01-30T10:40:13;102544.25;;;13.92;61.85
70976;BME280;58635;51.198;6.010;2024-01-30T10:42:42;102552.50;;;13.95;61.57
70976;BME280;58635;51.198;6.010;2024-01-30T10:45:14;102550.41;;;13.99;61.60
70976;BME280;58635;51.198;6.010;2024-01-30T10:47:49;102552.00;;;14.00;61.58
70976;BME280;58635;51.198;6.010;2024-01-30T10:50:15;102557.22;;;14.00;61.73
70976;BME280;58635;51.198;6.010;2024-01-30T10:52:41;102566.81;;;13.99;61.60
70976;BME280;58635;51.198;6.010;2024-01-30T10:55:10;102559.63;;;14.01;61.75
70976;BME280;58635;51.198;6.010;2024-01-30T10:57:36;102558.47;;;14.04;61.70
70976;BME280;58635;51.198;6.010;2024-01-30T11:00:05;102556.50;;;14.06;61.64
70976;BME280;58635;51.198;6.010;2024-01-30T11:02:37;102553.09;;;14.05;61.75
70976;BME280;58635;51.198;6.010;2024-01-30T11:05:04;102557.00;;;14.10;61.59
70976;BME280;58635;51.198;6.010;2024-01-30T11:07:30;102562.03;;;14.11;61.75
70976;BME280;58635;51.198;6.010;2024-01-30T11:12:26;102556.47;;;14.14;61.72
70976;BME280;58635;51.198;6.010;2024-01-30T11:20:29;102555.31;;;14.17;61.63
70976;BME280;58635;51.198;6.010;2024-01-30T11:22:57;102555.94;;;14.19;61.62
70976;BME280;58635;51.198;6.010;2024-01-30T11:25:24;102552.34;;;14.20;61.62
70976;BME280;58635;51.198;6.010;2024-01-30T11:27:51;102563.56;;;14.20;61.83
70976;BME280;58635;51.198;6.010;2024-01-30T11:30:35;102549.59;;;14.21;61.72
70976;BME280;58635;51.198;6.010;2024-01-30T11:33:05;102550.50;;;14.28;61.89
70976;BME280;58635;51.198;6.010;2024-01-30T11:35:36;102548.19;;;14.33;61.66
70976;BME280;58635;51.198;6.010;2024-01-30T11:38:03;102550.44;;;14.37;61.71
70976;BME280;58635;51.198;6.010;2024-01-30T11:40:29;102552.69;;;14.40;61.76
70976;BME280;58635;51.198;6.010;2024-01-30T11:42:56;102551.53;;;14.42;61.62
70976;BME280;58635;51.198;6.010;2024-01-30T11:45:21;102554.28;;;14.49;61.53
70976;BME280;58635;51.198;6.010;2024-01-30T11:47:47;102551.94;;;14.54;61.53
70976;BME280;58635;51.198;6.010;2024-01-30T11:50:13;102551.44;;;14.58;61.51
70976;BME280;58635;51.198;6.010;2024-01-30T11:52:39;102552.06;;;14.60;61.57
70976;BME280;58635;51.198;6.010;2024-01-30T11:55:05;102556.28;;;14.61;61.30
70976;BME280;58635;51.198;6.010;2024-01-30T11:57:30;102553.69;;;14.61;61.50
70976;BME280;58635;51.198;6.010;2024-01-30T11:59:56;102550.25;;;14.61;61.47
70976;BME280;58635;51.198;6.010;2024-01-30T12:02:22;102543.25;;;14.61;61.47
70976;BME280;58635;51.198;6.010;2024-01-30T12:04:47;102553.84;;;14.60;61.53
70976;BME280;58635;51.198;6.010;2024-01-30T12:07:13;102543.44;;;14.60;61.57
70976;BME280;58635;51.198;6.010;2024-01-30T12:09:41;102542.44;;;14.61;61.54
70976;BME280;58635;51.198;6.010;2024-01-30T12:12:07;102546.13;;;14.67;61.43
70976;BME280;58635;51.198;6.010;2024-01-30T12:14:39;102547.59;;;14.69;61.34
70976;BME280;58635;51.198;6.010;2024-01-30T12:17:05;102551.00;;;14.70;61.38
70976;BME280;58635;51.198;6.010;2024-01-30T12:19:30;102549.66;;;14.74;61.24
70976;BME280;58635;51.198;6.010;2024-01-30T12:21:58;102548.66;;;14.75;61.22
70976;BME280;58635;51.198;6.010;2024-01-30T12:24:27;102547.50;;;14.77;61.22
70976;BME280;58635;51.198;6.010;2024-01-30T12:26:57;102545.69;;;14.78;61.21
70976;BME280;58635;51.198;6.010;2024-01-30T12:29:22;102546.88;;;14.75;61.18
70976;BME280;58635;51.198;6.010;2024-01-30T12:31:47;102547.69;;;14.76;61.14
70976;BME280;58635;51.198;6.010;2024-01-30T12:34:16;102560.19;;;14.80;61.13
70976;BME280;58635;51.198;6.010;2024-01-30T12:36:43;102556.22;;;14.84;61.16
70976;BME280;58635;51.198;6.010;2024-01-30T12:39:11;102557.66;;;14.87;60.91
70976;BME280;58635;51.198;6.010;2024-01-30T12:41:38;102557.47;;;14.88;60.82
70976;BME280;58635;51.198;6.010;2024-01-30T12:44:03;102559.91;;;14.90;60.68
70976;BME280;58635;51.198;6.010;2024-01-30T12:46:29;102568.00;;;14.95;60.75
70976;BME280;58635;51.198;6.010;2024-01-30T12:48:54;102568.47;;;14.99;60.52
70976;BME280;58635;51.198;6.010;2024-01-30T12:51:19;102566.94;;;15.04;60.48